Time;durP1;ratioP1;P1;durP2;ratioP2;P2;SDS_P1;SDS_P2;PMS_P1;PMS_P2;Temp;Humidity;BMP_temperature;BMP_pressure;BME280_temperature;BME280_humidity;BME280_pressure;Samples;Min_cycle;Max_cycle;Signal;HPM_P1;HPM_P2
2023/04/04 00:01:08;;;;;;;;;;;;;;;5.74;68.21;102174.00;4997186;28;5750;-77
2023/04/04 00:03:34;;;;;;;;;;;;;;;5.64;68.36;102172.19;4998105;28;5671;-78
2023/04/04 00:06:01;;;;;;;;;;;;;;;5.78;67.80;102168.19;4998011;28;5840;-77
2023/04/04 00:08:28;;;;;;;;;;;;;;;5.64;68.29;102166.00;4996866;28;5515;-77
2023/04/04 00:10:55;;;;;;;;;;;;;;;5.57;68.39;102175.63;4996236;28;5623;-77
2023/04/04 00:13:21;;;;;;;;;;;;;;;5.57;68.61;102173.78;4988132;28;6012;-78
2023/04/04 00:15:48;;;;;;;;;;;;;;;5.58;68.49;102177.28;4995187;28;5744;-77
2023/04/04 00:18:15;;;;;;;;;;;;;;;5.60;68.25;102172.66;4979173;28;5485;-77
2023/04/04 00:20:41;;;;;;;;;;;;;;;5.53;68.62;102177.75;4996840;28;5469;-77
2023/04/04 00:23:10;;;;;;;;;;;;;;;5.51;68.55;102170.88;4994702;28;5464;-78
2023/04/04 00:25:36;;;;;;;;;;;;;;;5.55;68.56;102172.25;4998134;28;6211;-78
2023/04/04 00:28:03;;;;;;;;;;;;;;;5.47;68.54;102165.81;4996944;28;5899;-77
2023/04/04 00:30:30;;;;;;;;;;;;;;;5.54;68.35;102168.72;4995856;28;5942;-78
2023/04/04 00:32:56;;;;;;;;;;;;;;;5.48;68.39;102166.66;4998405;28;5497;-77
2023/04/04 00:35:23;;;;;;;;;;;;;;;5.42;68.55;102162.72;4992945;28;5883;-78
2023/04/04 00:37:50;;;;;;;;;;;;;;;5.42;68.51;102168.06;4996402;28;6255;-78
2023/04/04 00:40:16;;;;;;;;;;;;;;;5.39;68.55;102165.69;4995788;28;5535;-77
2023/04/04 00:42:43;;;;;;;;;;;;;;;5.37;68.67;102170.34;4996457;28;5477;-78
2023/04/04 00:45:09;;;;;;;;;;;;;;;5.36;68.69;102165.16;4994433;28;5555;-77
2023/04/04 00:47:36;;;;;;;;;;;;;;;5.36;68.51;102166.00;4993972;28;6462;-78
2023/04/04 00:50:03;;;;;;;;;;;;;;;5.35;68.79;102168.78;4996458;28;5577;-78
2023/04/04 00:52:29;;;;;;;;;;;;;;;5.36;68.46;102166.00;4994202;28;5686;-77
2023/04/04 00:54:56;;;;;;;;;;;;;;;5.36;68.37;102163.31;4979611;28;5911;-78
2023/04/04 00:57:23;;;;;;;;;;;;;;;5.32;68.45;102148.56;4994673;28;6955;-77
2023/04/04 00:59:49;;;;;;;;;;;;;;;5.31;68.63;102151.38;4996568;28;5391;-78
2023/04/04 01:02:16;;;;;;;;;;;;;;;5.28;68.65;102151.69;4995742;28;5675;-78
2023/04/04 01:04:42;;;;;;;;;;;;;;;5.32;68.53;102153.06;4995255;28;5758;-78
2023/04/04 01:07:09;;;;;;;;;;;;;;;5.28;68.57;102154.34;4996551;28;5646;-79
2023/04/04 01:09:36;;;;;;;;;;;;;;;5.27;68.53;102153.50;4994742;28;6498;-77
2023/04/04 01:12:02;;;;;;;;;;;;;;;5.26;68.42;102150.97;4995933;28;5919;-76
2023/04/04 01:14:29;;;;;;;;;;;;;;;5.27;68.32;102150.84;4994310;28;5497;-78
2023/04/04 01:16:55;;;;;;;;;;;;;;;5.23;68.42;102150.28;4985446;28;5778;-78
2023/04/04 01:19:22;;;;;;;;;;;;;;;5.22;68.50;102153.94;4994797;28;5961;-78
2023/04/04 01:21:48;;;;;;;;;;;;;;;5.20;68.47;102152.41;4998216;28;5641;-78
2023/04/04 01:24:15;;;;;;;;;;;;;;;5.19;68.35;102154.22;4993611;28;5884;-77
2023/04/04 01:26:42;;;;;;;;;;;;;;;5.18;68.38;102147.22;4993422;28;6342;-77
2023/04/04 01:29:08;;;;;;;;;;;;;;;5.17;68.38;102150.84;4995906;28;6483;-77
2023/04/04 01:31:35;;;;;;;;;;;;;;;5.18;68.33;102143.72;4992564;28;6385;-77
2023/04/04 01:34:01;;;;;;;;;;;;;;;5.16;68.41;102148.34;4978650;28;5714;-77
2023/04/04 01:36:28;;;;;;;;;;;;;;;5.14;68.46;102144.97;4993891;28;6394;-78
2023/04/04 01:38:55;;;;;;;;;;;;;;;5.14;68.38;102152.97;4995509;28;6484;-78
2023/04/04 01:41:21;;;;;;;;;;;;;;;5.13;68.35;102149.47;4994951;28;5878;-78
2023/04/04 01:43:48;;;;;;;;;;;;;;;5.12;68.36;102149.63;4996063;28;5446;-76
2023/04/04 01:46:14;;;;;;;;;;;;;;;5.11;68.33;102142.59;4993047;28;5758;-77
2023/04/04 01:48:43;;;;;;;;;;;;;;;5.09;68.39;102142.75;4994326;28;5595;-78
2023/04/04 01:51:09;;;;;;;;;;;;;;;5.08;68.20;102141.03;4985650;28;5518;-77
2023/04/04 01:53:36;;;;;;;;;;;;;;;5.08;68.21;102138.38;4993287;28;6356;-78
2023/04/04 01:56:02;;;;;;;;;;;;;;;5.06;68.26;102145.72;4990961;28;6219;-77
2023/04/04 01:58:29;;;;;;;;;;;;;;;5.06;68.27;102145.72;4994149;28;6440;-78
2023/04/04 02:00:56;;;;;;;;;;;;;;;5.05;68.47;102152.00;4995071;28;5430;-78
2023/04/04 02:03:22;;;;;;;;;;;;;;;5.04;68.30;102153.00;4984058;28;5801;-78
2023/04/04 02:05:49;;;;;;;;;;;;;;;5.05;68.14;102167.19;4995819;28;5542;-77
2023/04/04 02:08:15;;;;;;;;;;;;;;;5.01;68.27;102162.16;4992356;28;7214;-78
2023/04/04 02:10:42;;;;;;;;;;;;;;;5.01;68.25;102166.66;4994457;28;6229;-78
2023/04/04 02:13:09;;;;;;;;;;;;;;;4.99;68.20;102172.13;4993159;28;5863;-77
2023/04/04 02:15:35;;;;;;;;;;;;;;;4.98;68.17;102161.59;4991466;28;5849;-77
2023/04/04 02:18:02;;;;;;;;;;;;;;;4.97;68.28;102157.22;4991224;28;6867;-78
2023/04/04 02:20:29;;;;;;;;;;;;;;;4.95;68.34;102152.03;4994192;28;6296;-78
2023/04/04 02:22:55;;;;;;;;;;;;;;;4.93;68.11;102154.00;4994181;28;6014;-77
2023/04/04 02:25:22;;;;;;;;;;;;;;;4.93;68.20;102150.50;4992150;28;6374;-78
2023/04/04 02:27:48;;;;;;;;;;;;;;;4.91;68.31;102145.31;4993708;28;5569;-77
2023/04/04 02:30:15;;;;;;;;;;;;;;;4.89;68.22;102136.59;4992512;28;5641;-77
2023/04/04 02:32:42;;;;;;;;;;;;;;;4.89;68.25;102128.59;4980880;28;6358;-78
2023/04/04 02:35:09;;;;;;;;;;;;;;;4.89;68.24;102130.44;4991818;28;5438;-78
2023/04/04 02:37:36;;;;;;;;;;;;;;;4.87;68.26;102127.88;4991661;28;6053;-77
2023/04/04 02:40:02;;;;;;;;;;;;;;;4.86;68.26;102122.72;4991962;28;5444;-78
2023/04/04 02:42:29;;;;;;;;;;;;;;;4.86;68.21;102120.03;4994409;28;6189;-77
2023/04/04 02:44:55;;;;;;;;;;;;;;;4.85;68.12;102121.00;4992254;28;5759;-78
2023/04/04 02:47:22;;;;;;;;;;;;;;;4.83;68.23;102123.84;4973283;28;5500;-77
2023/04/04 02:49:48;;;;;;;;;;;;;;;4.82;68.13;102119.47;4993452;28;5470;-77
2023/04/04 02:52:15;;;;;;;;;;;;;;;4.83;68.20;102117.66;4995233;28;6377;-76
2023/04/04 02:54:42;;;;;;;;;;;;;;;4.81;68.25;102119.63;4976389;28;5481;-77
2023/04/04 02:57:09;;;;;;;;;;;;;;;4.79;68.07;102117.06;4993137;28;6379;-78
2023/04/04 02:59:35;;;;;;;;;;;;;;;4.78;68.00;102115.41;4984663;28;5678;-77
2023/04/04 03:02:02;;;;;;;;;;;;;;;4.77;68.05;102122.56;4992758;28;6008;-77
2023/04/04 03:04:29;;;;;;;;;;;;;;;4.76;68.08;102117.38;4993838;28;5443;-77
2023/04/04 03:06:56;;;;;;;;;;;;;;;4.75;68.12;102115.69;4994136;28;6410;-78
2023/04/04 03:09:23;;;;;;;;;;;;;;;4.73;68.11;102115.81;4993444;28;5623;-77
2023/04/04 03:11:50;;;;;;;;;;;;;;;4.73;67.97;102112.31;4993860;28;5618;-77
2023/04/04 03:14:17;;;;;;;;;;;;;;;4.71;68.10;102104.47;4994001;28;5324;-77
2023/04/04 03:16:43;;;;;;;;;;;;;;;4.71;68.03;102112.47;4991572;28;5340;-77
2023/04/04 03:19:10;;;;;;;;;;;;;;;4.69;68.05;102103.75;4992491;28;5528;-78
2023/04/04 03:21:37;;;;;;;;;;;;;;;4.68;68.17;102106.59;4994368;28;6059;-78
2023/04/04 03:24:03;;;;;;;;;;;;;;;4.67;68.02;102111.06;4993458;28;6439;-77
2023/04/04 03:26:30;;;;;;;;;;;;;;;4.67;67.98;102108.38;4993525;28;6609;-77
2023/04/04 03:28:56;;;;;;;;;;;;;;;4.66;68.18;102108.53;4991764;28;5837;-77
2023/04/04 03:31:23;;;;;;;;;;;;;;;4.65;68.10;102101.53;4994767;28;5449;-78
2023/04/04 03:33:49;;;;;;;;;;;;;;;4.64;67.79;102105.16;4992518;28;6053;-77
2023/04/04 03:36:16;;;;;;;;;;;;;;;4.62;68.24;102102.66;4995062;28;5746;-78
2023/04/04 03:38:43;;;;;;;;;;;;;;;4.61;68.03;102100.13;4994687;28;5449;-78
2023/04/04 03:41:09;;;;;;;;;;;;;;;4.59;68.25;102100.28;4994415;28;6902;-77
2023/04/04 03:43:36;;;;;;;;;;;;;;;4.59;68.16;102094.06;4994781;28;5489;-78
2023/04/04 03:46:04;;;;;;;;;;;;;;;4.58;67.97;102095.91;4992055;28;6311;-78
2023/04/04 03:48:30;;;;;;;;;;;;;;;4.57;67.89;102096.91;4976667;28;6207;-78
2023/04/04 03:50:57;;;;;;;;;;;;;;;4.55;67.92;102093.53;4993871;28;5973;-78
2023/04/04 03:53:24;;;;;;;;;;;;;;;4.53;68.01;102085.69;4978009;28;5429;-77
2023/04/04 03:55:50;;;;;;;;;;;;;;;4.53;68.07;102082.19;4977137;28;5598;-78
2023/04/04 03:58:17;;;;;;;;;;;;;;;4.52;67.89;102091.13;4982931;28;6041;-77
2023/04/04 04:00:43;;;;;;;;;;;;;;;4.51;68.06;102084.97;4980026;28;8326;-78
2023/04/04 04:03:10;;;;;;;;;;;;;;;4.50;67.92;102085.09;4981113;28;5421;-77
2023/04/04 04:05:36;;;;;;;;;;;;;;;4.49;67.91;102080.75;4967842;28;5830;-78
2023/04/04 04:08:06;;;;;;;;;;;;;;;4.49;68.07;102083.44;4960559;28;6547;-77
2023/04/04 04:10:33;;;;;;;;;;;;;;;4.47;68.00;102088.91;4984334;28;5428;-77
2023/04/04 04:13:19;;;;;;;;;;;;;;;4.46;68.02;102095.22;4979377;28;5824;-77
2023/04/04 04:16:11;;;;;;;;;;;;;;;4.46;68.07;102089.88;4983732;28;5778;-76
2023/04/04 04:19:03;;;;;;;;;;;;;;;4.45;67.80;102084.72;4978966;28;5759;-76
2023/04/04 04:21:55;;;;;;;;;;;;;;;4.45;67.98;102093.53;4978274;28;5427;-78
2023/04/04 04:24:42;;;;;;;;;;;;;;;4.43;67.76;102098.16;4976783;28;5409;-76
2023/04/04 04:27:29;;;;;;;;;;;;;;;4.43;67.79;102094.66;4980739;28;5278;-78
2023/04/04 04:29:59;;;;;;;;;;;;;;;4.42;67.79;102088.50;4972532;28;5647;-76
2023/04/04 04:32:51;;;;;;;;;;;;;;;4.42;67.88;102087.66;4981468;28;5357;-76
2023/04/04 04:35:19;;;;;;;;;;;;;;;4.40;67.69;102093.13;4983161;28;6396;-77
2023/04/04 04:38:07;;;;;;;;;;;;;;;4.41;67.64;102085.94;4982599;28;5410;-76
2023/04/04 04:40:58;;;;;;;;;;;;;;;4.41;67.68;102088.63;4984633;28;5738;-78
2023/04/04 04:43:25;;;;;;;;;;;;;;;4.40;67.63;102092.28;4981647;28;5931;-77
2023/04/04 04:45:51;;;;;;;;;;;;;;;4.39;67.55;102091.44;4988425;28;5429;-78
2023/04/04 04:48:18;;;;;;;;;;;;;;;4.39;67.55;102102.13;4979103;28;5475;-78
2023/04/04 04:50:44;;;;;;;;;;;;;;;4.38;67.61;102089.75;4981753;28;5440;-78
2023/04/04 04:53:11;;;;;;;;;;;;;;;4.37;67.51;102084.56;4981474;28;5472;-77
2023/04/04 04:55:37;;;;;;;;;;;;;;;4.37;67.49;102087.22;4980545;28;5410;-77
2023/04/04 04:58:04;;;;;;;;;;;;;;;4.36;67.64;102086.41;4990045;28;5418;-79
2023/04/04 05:00:31;;;;;;;;;;;;;;;4.38;67.63;102094.25;4984550;28;5599;-76
2023/04/04 05:02:59;;;;;;;;;;;;;;;4.37;67.27;102097.91;4990615;28;5504;-77
2023/04/04 05:05:25;;;;;;;;;;;;;;;4.39;67.11;102095.94;4967859;28;5396;-77
2023/04/04 05:07:52;;;;;;;;;;;;;;;4.37;67.38;102100.56;4968710;28;5530;-76
2023/04/04 05:10:18;;;;;;;;;;;;;;;4.36;67.23;102097.06;4985837;28;5401;-77
2023/04/04 05:12:45;;;;;;;;;;;;;;;4.37;67.03;102103.25;4968299;28;5382;-77
2023/04/04 05:15:12;;;;;;;;;;;;;;;4.39;67.06;102096.78;4977551;28;5436;-78
2023/04/04 05:17:38;;;;;;;;;;;;;;;4.37;67.16;102098.75;4994751;28;5520;-78
2023/04/04 05:20:05;;;;;;;;;;;;;;;4.39;67.03;102095.94;4979590;28;6095;-77
2023/04/04 05:22:31;;;;;;;;;;;;;;;4.36;67.18;102102.41;4985911;28;6391;-78
2023/04/04 05:24:58;;;;;;;;;;;;;;;4.38;66.99;102102.25;4996875;28;5453;-78
2023/04/04 05:27:24;;;;;;;;;;;;;;;4.42;66.78;102098.31;4995892;28;5511;-78
2023/04/04 05:29:52;;;;;;;;;;;;;;;4.39;67.13;102102.13;4981977;28;5968;-77
2023/04/04 05:32:18;;;;;;;;;;;;;;;4.38;66.94;102110.25;4994384;28;5467;-78
2023/04/04 05:34:45;;;;;;;;;;;;;;;4.37;66.83;102106.75;4996755;28;5476;-78
2023/04/04 05:37:11;;;;;;;;;;;;;;;4.38;66.64;102118.25;4994427;28;5494;-78
2023/04/04 05:39:38;;;;;;;;;;;;;;;4.37;66.99;102114.75;4994065;28;6471;-78
2023/04/04 05:42:04;;;;;;;;;;;;;;;4.37;66.97;102116.56;4996048;28;5386;-78
2023/04/04 05:44:31;;;;;;;;;;;;;;;4.38;66.73;102120.91;4991869;28;5593;-77
2023/04/04 05:46:57;;;;;;;;;;;;;;;4.35;66.86;102116.69;4979256;28;5506;-77
2023/04/04 05:49:24;;;;;;;;;;;;;;;4.37;66.55;102111.25;4975919;28;6052;-77
2023/04/04 05:51:51;;;;;;;;;;;;;;;4.39;66.74;102123.47;4994816;28;5531;-77
2023/04/04 05:54:17;;;;;;;;;;;;;;;4.37;66.83;102113.91;4995813;28;5560;-77
2023/04/04 05:56:44;;;;;;;;;;;;;;;4.38;66.70;102112.91;4994324;28;5698;-76
2023/04/04 05:59:10;;;;;;;;;;;;;;;4.39;66.85;102123.47;4998162;28;5603;-77
2023/04/04 06:01:37;;;;;;;;;;;;;;;4.40;66.72;102113.63;4992790;28;5432;-78
2023/04/04 06:04:04;;;;;;;;;;;;;;;4.38;66.47;102123.59;4986927;28;5814;-77
2023/04/04 06:06:30;;;;;;;;;;;;;;;4.39;66.58;102117.28;4994786;28;5353;-77
2023/04/04 06:08:57;;;;;;;;;;;;;;;4.39;66.54;102117.28;4993714;28;5442;-77
2023/04/04 06:11:23;;;;;;;;;;;;;;;4.37;66.48;102120.09;4995916;28;6542;-77
2023/04/04 06:13:51;;;;;;;;;;;;;;;4.39;66.61;102118.13;4987987;28;5484;-78
2023/04/04 06:16:18;;;;;;;;;;;;;;;4.38;66.56;102110.25;4989808;28;5364;-78
2023/04/04 06:18:44;;;;;;;;;;;;;;;4.36;66.56;102117.56;4988188;28;5884;-77
2023/04/04 06:21:12;;;;;;;;;;;;;;;4.38;66.51;102112.91;4970683;28;5821;-77
2023/04/04 06:23:38;;;;;;;;;;;;;;;4.37;66.74;102117.41;4980529;28;5332;-78
2023/04/04 06:26:05;;;;;;;;;;;;;;;4.42;66.35;102111.66;4985169;28;5847;-78
2023/04/04 06:28:31;;;;;;;;;;;;;;;4.39;66.43;102119.97;4971070;28;5690;-77
2023/04/04 06:30:58;;;;;;;;;;;;;;;3.80;66.60;102018.63;4986830;28;5304;-78
2023/04/04 06:33:25;;;;;;;;;;;;;;;3.91;66.42;102046.09;4984250;28;5336;-78
2023/04/04 06:35:51;;;;;;;;;;;;;;;4.42;66.62;102117.00;4984597;28;6344;-77
2023/04/04 06:38:18;;;;;;;;;;;;;;;4.42;66.46;102122.34;4982244;28;5538;-78
2023/04/04 06:40:45;;;;;;;;;;;;;;;4.43;66.24;102114.19;4978526;28;5539;-78
2023/04/04 06:43:11;;;;;;;;;;;;;;;4.47;66.09;102118.28;4985722;28;5704;-78
2023/04/04 06:45:38;;;;;;;;;;;;;;;4.45;66.23;102119.38;4983901;28;6085;-77
2023/04/04 06:48:04;;;;;;;;;;;;;;;4.45;66.35;102120.22;4989515;28;5567;-77
2023/04/04 06:50:32;;;;;;;;;;;;;;;4.45;66.33;102119.38;4991595;28;5479;-77
2023/04/04 06:52:59;;;;;;;;;;;;;;;4.45;66.23;102122.06;4994474;28;5496;-75
2023/04/04 06:55:26;;;;;;;;;;;;;;;4.50;66.11;102125.13;4990172;28;5574;-76
2023/04/04 06:57:52;;;;;;;;;;;;;;;4.51;65.91;102121.50;4996889;28;5285;-76
2023/04/04 07:00:19;;;;;;;;;;;;;;;4.47;66.15;102117.41;4992812;28;5828;-77
2023/04/04 07:02:45;;;;;;;;;;;;;;;4.47;66.09;102120.06;4991551;28;6334;-77
2023/04/04 07:05:13;;;;;;;;;;;;;;;4.47;66.25;102126.28;4995366;28;6453;-77
2023/04/04 07:07:40;;;;;;;;;;;;;;;4.51;65.87;102117.00;4992616;28;5765;-76
2023/04/04 07:10:06;;;;;;;;;;;;;;;4.54;66.02;102122.03;4993369;28;6364;-78
2023/04/04 07:12:33;;;;;;;;;;;;;;;4.58;65.71;102117.25;4991427;28;5953;-78
2023/04/04 07:14:59;;;;;;;;;;;;;;;4.53;65.89;102116.88;4978180;28;6363;-77
2023/04/04 07:17:26;;;;;;;;;;;;;;;4.53;65.89;102115.03;4992692;28;6017;-78
2023/04/04 07:19:52;;;;;;;;;;;;;;;4.57;65.90;102114.75;4995836;28;5595;-80
2023/04/04 07:22:19;;;;;;;;;;;;;;;4.66;65.34;102121.91;4991689;28;5577;-79
2023/04/04 07:24:47;;;;;;;;;;;;;;;4.56;65.74;102111.25;4995177;28;5980;-79
2023/04/04 07:27:14;;;;;;;;;;;;;;;4.58;65.86;102122.59;4993741;28;5471;-79
2023/04/04 07:29:41;;;;;;;;;;;;;;;4.60;65.77;102119.78;4991990;28;5929;-79
2023/04/04 07:32:08;;;;;;;;;;;;;;;4.61;65.67;102121.47;4991986;28;5529;-79
2023/04/04 07:34:34;;;;;;;;;;;;;;;4.68;65.37;102122.59;4986638;28;6306;-80
2023/04/04 07:37:01;;;;;;;;;;;;;;;4.65;65.63;102112.22;4982875;28;5542;-76
2023/04/04 07:39:27;;;;;;;;;;;;;;;4.71;65.33;102122.31;4981086;28;5582;-79
2023/04/04 07:41:54;;;;;;;;;;;;;;;4.66;65.66;102120.06;4986544;28;5442;-80
2023/04/04 07:44:20;;;;;;;;;;;;;;;4.65;65.59;102117.56;4990313;28;5436;-75
2023/04/04 07:46:47;;;;;;;;;;;;;;;4.70;65.48;102116.09;4981291;28;5428;-78
2023/04/04 07:49:13;;;;;;;;;;;;;;;4.64;65.39;102129.19;4967950;28;6030;-77
2023/04/04 07:51:40;;;;;;;;;;;;;;;4.67;65.70;102120.91;4984813;28;5756;-76
2023/04/04 07:54:07;;;;;;;;;;;;;;;4.65;65.85;102117.56;4986630;28;5721;-76
2023/04/04 07:56:33;;;;;;;;;;;;;;;4.68;65.54;102126.09;4986738;28;5448;-78
2023/04/04 07:59:00;;;;;;;;;;;;;;;4.71;65.69;102119.66;4994966;28;5522;-78
2023/04/04 08:01:26;;;;;;;;;;;;;;;4.74;65.52;102116.69;4990585;28;5483;-78
2023/04/04 08:03:53;;;;;;;;;;;;;;;4.76;65.29;102114.69;4970814;28;5750;-80
2023/04/04 08:06:19;;;;;;;;;;;;;;;4.76;65.34;102120.91;4984990;28;6453;-78
2023/04/04 08:08:46;;;;;;;;;;;;;;;4.84;65.34;102119.31;4987052;28;5476;-78
2023/04/04 08:11:13;;;;;;;;;;;;;;;4.78;65.02;102120.75;4975370;28;5528;-77
2023/04/04 08:13:40;;;;;;;;;;;;;;;4.86;65.13;102126.22;4997789;28;6036;-77
2023/04/04 08:16:06;;;;;;;;;;;;;;;4.85;65.29;102124.50;4995634;28;5988;-78
2023/04/04 08:18:33;;;;;;;;;;;;;;;4.89;65.03;102125.09;4994655;28;5620;-78
2023/04/04 08:20:59;;;;;;;;;;;;;;;4.83;65.38;102121.16;4983645;28;5773;-78
2023/04/04 08:23:26;;;;;;;;;;;;;;;4.83;65.46;102118.50;4986031;28;5488;-78
2023/04/04 08:25:54;;;;;;;;;;;;;;;4.94;64.99;102114.78;4971791;28;6199;-79
2023/04/04 08:28:20;;;;;;;;;;;;;;;4.87;65.26;102122.53;4967311;28;6515;-78
2023/04/04 08:30:47;;;;;;;;;;;;;;;4.86;65.42;102120.03;4985092;28;5995;-79
2023/04/04 08:33:13;;;;;;;;;;;;;;;4.92;65.20;102116.78;4983660;28;5572;-78
2023/04/04 08:35:40;;;;;;;;;;;;;;;4.87;65.49;102119.88;4974963;28;6351;-78
2023/04/04 08:38:07;;;;;;;;;;;;;;;4.90;65.46;102118.75;4981741;28;5757;-78
2023/04/04 08:40:33;;;;;;;;;;;;;;;4.87;65.54;102124.38;4967243;28;5648;-78
2023/04/04 08:43:00;;;;;;;;;;;;;;;4.90;65.43;102124.09;4968448;28;6080;-79
2023/04/04 08:45:27;;;;;;;;;;;;;;;4.95;65.34;102116.50;4984529;28;5405;-78
2023/04/04 08:47:53;;;;;;;;;;;;;;;4.95;65.43;102119.16;4983442;28;5971;-78
2023/04/04 08:50:20;;;;;;;;;;;;;;;4.96;65.37;102121.69;4986299;28;5406;-78
2023/04/04 08:52:46;;;;;;;;;;;;;;;5.01;65.23;102122.09;4986747;28;6221;-78
2023/04/04 08:55:14;;;;;;;;;;;;;;;4.95;65.52;102122.69;4986278;28;5352;-79
2023/04/04 08:57:40;;;;;;;;;;;;;;;5.01;65.28;102118.59;4985574;28;5538;-78
2023/04/04 09:00:07;;;;;;;;;;;;;;;5.00;65.45;102114.25;4984823;28;6119;-79
2023/04/04 09:02:33;;;;;;;;;;;;;;;5.01;65.48;102102.56;4979818;28;6175;-78
2023/04/04 09:05:00;;;;;;;;;;;;;;;4.97;65.52;102104.69;4985886;28;5506;-79
2023/04/04 09:07:27;;;;;;;;;;;;;;;4.99;65.62;102102.69;4988156;28;5324;-77
2023/04/04 09:09:53;;;;;;;;;;;;;;;5.05;65.64;102111.13;4985311;28;5548;-78
2023/04/04 09:12:21;;;;;;;;;;;;;;;5.01;65.71;102105.22;4994020;28;5807;-78
2023/04/04 09:14:47;;;;;;;;;;;;;;;5.04;65.58;102107.63;4984939;28;5522;-80
2023/04/04 09:17:14;;;;;;;;;;;;;;;5.04;65.63;102102.28;4995276;28;5481;-77
2023/04/04 09:19:40;;;;;;;;;;;;;;;5.07;65.33;102098.47;4989463;28;5731;-78
2023/04/04 09:22:08;;;;;;;;;;;;;;;5.06;65.96;102092.28;4987692;28;5957;-79
2023/04/04 09:24:34;;;;;;;;;;;;;;;5.11;65.71;102086.50;4968778;28;6554;-79
2023/04/04 09:27:01;;;;;;;;;;;;;;;5.12;65.64;102090.88;4973755;28;5550;-77
2023/04/04 09:29:27;;;;;;;;;;;;;;;5.11;65.86;102090.00;4993287;28;5902;-78
2023/04/04 09:31:54;;;;;;;;;;;;;;;5.12;65.90;102080.19;4986184;28;5998;-80
2023/04/04 09:34:20;;;;;;;;;;;;;;;5.12;65.75;102089.03;4992631;28;5424;-77
2023/04/04 09:36:47;;;;;;;;;;;;;;;5.15;65.65;102085.22;4994513;28;5655;-78
2023/04/04 09:39:15;;;;;;;;;;;;;;;5.16;65.81;102078.91;4996304;28;6017;-78
2023/04/04 09:41:42;;;;;;;;;;;;;;;5.17;65.73;102085.91;4996344;28;5689;-78
2023/04/04 09:44:09;;;;;;;;;;;;;;;5.20;65.82;102077.59;4995805;28;5547;-78
2023/04/04 09:46:36;;;;;;;;;;;;;;;5.23;65.72;102090.66;4995493;28;5679;-80
2023/04/04 09:49:03;;;;;;;;;;;;;;;5.22;65.89;102072.97;4995597;28;5600;-79
2023/04/04 09:51:30;;;;;;;;;;;;;;;5.21;65.87;102077.47;4977349;28;5649;-77
2023/04/04 09:53:57;;;;;;;;;;;;;;;5.24;65.91;102074.50;4989283;28;6773;-77
2023/04/04 09:56:23;;;;;;;;;;;;;;;5.29;65.64;102082.06;4989800;28;5491;-79
2023/04/04 09:58:50;;;;;;;;;;;;;;;5.28;65.86;102072.38;4985579;28;5548;-77
2023/04/04 10:01:16;;;;;;;;;;;;;;;5.38;65.53;102072.31;4984829;28;5805;-77
2023/04/04 10:03:43;;;;;;;;;;;;;;;5.34;65.91;102066.44;4979855;28;5692;-78
2023/04/04 10:06:10;;;;;;;;;;;;;;;5.33;65.70;102069.25;4993706;28;5421;-78
2023/04/04 10:08:36;;;;;;;;;;;;;;;5.33;66.06;102059.41;4993771;28;5566;-78
2023/04/04 10:11:03;;;;;;;;;;;;;;;5.35;65.72;102065.44;4999213;28;5237;-81
2023/04/04 10:13:29;;;;;;;;;;;;;;;5.38;65.94;102058.94;4984659;28;4900;-79
2023/04/04 10:15:56;;;;;;;;;;;;;;;5.35;65.96;102057.41;4984820;28;2309;-77
2023/04/04 10:18:23;;;;;;;;;;;;;;;5.38;65.83;102051.81;5003196;28;1195;-78
2023/04/04 10:20:50;;;;;;;;;;;;;;;5.39;66.06;102057.97;5001476;28;2351;-77
2023/04/04 10:23:16;;;;;;;;;;;;;;;5.40;65.99;102057.81;5003048;28;2456;-78
2023/04/04 10:25:43;;;;;;;;;;;;;;;5.45;66.12;102057.38;4982532;28;4799;-79
2023/04/04 10:28:10;;;;;;;;;;;;;;;5.48;65.81;102054.41;4984746;28;2386;-76
2023/04/04 10:30:38;;;;;;;;;;;;;;;5.49;65.98;102061.44;4995576;28;5506;-79
2023/04/04 10:33:05;;;;;;;;;;;;;;;5.50;66.12;102051.56;4993874;28;5599;-80
2023/04/04 10:35:31;;;;;;;;;;;;;;;5.51;65.99;102053.28;4993517;28;5912;-79
2023/04/04 10:37:58;;;;;;;;;;;;;;;5.52;66.13;102046.94;4994616;28;5944;-79
2023/04/04 10:40:25;;;;;;;;;;;;;;;5.54;65.93;102044.94;4991084;28;5882;-79
2023/04/04 10:42:51;;;;;;;;;;;;;;;5.54;66.08;102050.28;4977136;28;6068;-79
2023/04/04 10:45:18;;;;;;;;;;;;;;;5.56;66.16;102045.63;4990960;28;6017;-79
2023/04/04 10:47:44;;;;;;;;;;;;;;;5.60;65.89;102039.00;4994447;28;5723;-79
2023/04/04 10:50:11;;;;;;;;;;;;;;;5.59;66.09;102035.50;4992971;28;6603;-79
2023/04/04 10:52:38;;;;;;;;;;;;;;;5.58;65.95;102036.47;4993904;28;5606;-79
2023/04/04 10:55:05;;;;;;;;;;;;;;;5.61;66.30;102038.84;4993189;28;5646;-79
2023/04/04 10:57:32;;;;;;;;;;;;;;;5.64;66.33;102029.69;4994538;28;5670;-77
2023/04/04 10:59:58;;;;;;;;;;;;;;;5.67;66.04;102024.88;4978821;28;5751;-78
2023/04/04 11:02:25;;;;;;;;;;;;;;;5.67;66.06;102032.88;4977660;28;5548;-81
2023/04/04 11:04:52;;;;;;;;;;;;;;;5.68;66.13;102031.06;4994007;28;6277;-78
2023/04/04 11:07:19;;;;;;;;;;;;;;;5.70;66.05;102031.75;4993700;28;6521;-78
2023/04/04 11:09:45;;;;;;;;;;;;;;;5.73;66.30;102033.28;4993460;28;6439;-78
2023/04/04 11:12:14;;;;;;;;;;;;;;;5.74;66.08;102025.13;4983781;28;5504;-77
2023/04/04 11:14:41;;;;;;;;;;;;;;;5.73;66.24;102017.22;4984616;28;5690;-78
2023/04/04 11:17:08;;;;;;;;;;;;;;;5.75;66.43;102024.13;4992617;28;5633;-77
2023/04/04 11:19:35;;;;;;;;;;;;;;;5.79;66.36;102021.97;4982613;28;6032;-78
2023/04/04 11:22:02;;;;;;;;;;;;;;;5.79;66.35;102019.31;4994890;28;5912;-80
2023/04/04 11:24:28;;;;;;;;;;;;;;;5.82;66.19;102014.47;4995688;28;5568;-77
2023/04/04 11:26:55;;;;;;;;;;;;;;;5.83;66.26;102008.16;4993091;28;5628;-78
2023/04/04 11:29:22;;;;;;;;;;;;;;;5.84;66.41;102007.16;4996431;28;5869;-78
2023/04/04 11:31:49;;;;;;;;;;;;;;;5.88;66.30;102002.34;4992595;28;5507;-80
2023/04/04 11:34:16;;;;;;;;;;;;;;;5.88;66.09;102003.19;4979255;28;5553;-79
2023/04/04 11:36:43;;;;;;;;;;;;;;;5.90;66.45;101998.50;4992435;28;5582;-78
2023/04/04 11:39:10;;;;;;;;;;;;;;;5.96;65.96;101999.78;5000626;28;5566;-78
2023/04/04 11:41:36;;;;;;;;;;;;;;;6.01;65.78;102000.16;4999399;28;5592;-78
2023/04/04 11:44:03;;;;;;;;;;;;;;;5.97;66.38;102001.47;4983517;28;5525;-78
2023/04/04 11:46:30;;;;;;;;;;;;;;;5.96;66.30;101999.78;4996558;28;5574;-78
2023/04/04 11:48:57;;;;;;;;;;;;;;;5.97;66.48;101998.78;4998112;28;5651;-77
2023/04/04 11:51:24;;;;;;;;;;;;;;;6.01;66.35;101993.97;4989035;28;5411;-78
2023/04/04 11:53:51;;;;;;;;;;;;;;;6.02;66.29;101988.44;4997338;28;6308;-78
2023/04/04 11:56:17;;;;;;;;;;;;;;;6.04;66.23;101994.50;4998143;28;5441;-80
2023/04/04 11:58:44;;;;;;;;;;;;;;;6.06;66.29;101994.31;4986359;28;5489;-78
2023/04/04 12:01:11;;;;;;;;;;;;;;;6.07;66.52;101994.19;4997874;28;5580;-78
2023/04/04 12:03:38;;;;;;;;;;;;;;;6.09;66.24;101989.53;4997226;28;5539;-77
2023/04/04 12:06:04;;;;;;;;;;;;;;;6.14;66.23;101986.38;5000628;28;5412;-78
2023/04/04 12:08:32;;;;;;;;;;;;;;;6.17;66.24;101986.06;4988719;28;5644;-78
2023/04/04 12:10:59;;;;;;;;;;;;;;;6.40;65.35;101978.38;4988298;28;5660;-78
2023/04/04 12:13:25;;;;;;;;;;;;;;;6.43;65.44;101975.38;4979696;28;5646;-78
2023/04/04 12:15:52;;;;;;;;;;;;;;;6.47;65.53;101967.84;4985371;28;5704;-79
2023/04/04 12:18:19;;;;;;;;;;;;;;;6.34;65.72;101970.97;4996103;28;5670;-79
2023/04/04 12:20:45;;;;;;;;;;;;;;;6.34;65.95;101966.44;4971939;28;5569;-78
2023/04/04 12:23:12;;;;;;;;;;;;;;;6.35;65.84;101970.81;4984932;28;5715;-79
2023/04/04 12:25:42;;;;;;;;;;;;;;;6.50;65.51;101967.53;4987375;28;5717;-77
2023/04/04 12:28:09;;;;;;;;;;;;;;;6.41;66.02;101968.50;4973906;28;5983;-80
2023/04/04 12:30:36;;;;;;;;;;;;;;;6.36;65.92;101975.16;4995653;28;5783;-77
2023/04/04 12:33:03;;;;;;;;;;;;;;;6.35;66.07;101959.25;4998475;28;6057;-80
2023/04/04 12:35:29;;;;;;;;;;;;;;;6.45;64.95;101951.13;4996659;28;5670;-77
2023/04/04 12:37:56;;;;;;;;;;;;;;;6.34;64.90;101958.41;4973952;28;5384;-81
2023/04/04 12:40:23;;;;;;;;;;;;;;;6.37;63.83;101952.75;4995733;28;5456;-83
2023/04/04 12:42:49;;;;;;;;;;;;;;;6.35;64.20;101951.22;4995286;28;5483;-81
2023/04/04 12:45:16;;;;;;;;;;;;;;;6.35;64.40;101953.91;4992009;28;5404;-81
2023/04/04 12:47:43;;;;;;;;;;;;;;;6.36;65.23;101955.59;4975682;28;5506;-82
2023/04/04 12:50:10;;;;;;;;;;;;;;;6.36;65.12;101948.41;5001372;28;5499;-80
2023/04/04 12:52:36;;;;;;;;;;;;;;;6.36;65.60;101950.25;4989578;28;5589;-83
2023/04/04 12:55:03;;;;;;;;;;;;;;;6.38;65.67;101945.56;4979294;28;5472;-81
2023/04/04 12:57:30;;;;;;;;;;;;;;;6.40;65.93;101943.56;4990933;28;5890;-81